Flight Track Log - Related Links

Times and Time Zones

All times are in EDT time to prevent confusion due to time zone crossing. See the JUS208 flight status page for this flight to view local times or setup timezone preferences in your user account.

Time Position Orientation Groundspeed Altitude Reporting Facility
EDT Latitude Longitude Course Direction KTS MPH feet Rate Location/Type
Wed 06:30:56 AM 37.1392 -88.6656 48° Northeast 378 435 3,800  Level Memphis Center
Wed 06:31:56 AM 37.1922 -88.5914 48° Northeast 314 361 6,100 2,900 Climbing Memphis Center
Wed 06:32:56 AM 37.2578 -88.5197 41° Northeast 309 356 9,600 3,300 Climbing Memphis Center
Wed 06:33:56 AM 37.3319 -88.4606 32° Northeast 309 356 12,700 2,950 Climbing Memphis Center
Wed 06:34:56 AM 37.3972 -88.3781 45° Northeast 314 361 15,500 3,000 Climbing Memphis Center
Wed 06:35:00 AM 37.4202 -88.3365 42° Northeast  Level FlightAware Approximate
Wed 06:35:28 AM 37.4314 -88.3339 46° Northeast 335 386 17,300  Level Indianapolis Center
Wed 06:36:29 AM 37.4975 -88.2553 43° Northeast 341 392 19,600 2,182 Climbing Indianapolis Center
Wed 06:37:29 AM 37.5764 -88.1639 43° Northeast 361 415 21,700 1,934 Climbing Indianapolis Center
Wed 06:38:30 AM 37.6567 -88.0769 41° Northeast 374 430 23,500 1,770 Climbing Indianapolis Center
Wed 06:39:31 AM 37.7367 -87.9800 44° Northeast 391 450 25,300 1,623 Climbing Indianapolis Center
Wed 06:40:32 AM 37.8169 -87.8983 39° Northeast 398 458 26,800 1,537 Climbing Indianapolis Center
Wed 06:41:32 AM 37.8997 -87.7950 45° Northeast 411 473 28,400 1,587 Climbing Indianapolis Center
Wed 06:42:33 AM 37.9847 -87.6964 42° Northeast 414 476 30,000 1,475 Climbing Indianapolis Center
Wed 06:43:34 AM 38.0883 -87.6311 26° Northeast 412 474 31,400 1,230 Climbing Indianapolis Center
Wed 06:44:35 AM 38.1897 -87.5542 31° Northeast 419 482 32,500 1,082 Climbing Indianapolis Center
Wed 06:45:36 AM 38.2872 -87.4622 36° Northeast 429 494 33,600 992 Climbing Indianapolis Center
Wed 06:46:36 AM 38.3958 -87.3867 29° Northeast 439 505 34,500 694 Climbing Indianapolis Center
Wed 06:47:37 AM 38.5039 -87.2994 32° Northeast 449 517 35,000 246 Climbing Indianapolis Center
Wed 06:48:38 AM 38.6083 -87.2000 37° Northeast 459 528 35,000  Level Indianapolis Center
Wed 06:49:39 AM 38.7211 -87.1214 29° Northeast 457 526 35,000  Level Indianapolis Center
Wed 06:50:40 AM 38.8294 -87.0314 33° Northeast 458 527 35,000  Level Indianapolis Center
Wed 06:51:41 AM 38.9350 -86.9347 35° Northeast 462 532 35,000  Level Indianapolis Center
Wed 06:52:41 AM 39.0464 -86.8567 29° Northeast 455 524 35,000  Level Indianapolis Center
Wed 06:53:42 AM 39.1581 -86.7561 35° Northeast 460 529 35,000  Level Indianapolis Center
Wed 06:54:43 AM 39.2633 -86.6653 34° Northeast 457 526 35,000  Level Indianapolis Center
Wed 06:55:44 AM 39.3725 -86.5864 29° Northeast 451 519 35,000  Level Indianapolis Center
Wed 06:56:45 AM 39.4753 -86.4892 36° Northeast 459 528 35,000  Level Indianapolis Center
Wed 06:57:46 AM 39.5811 -86.4011 33° Northeast 454 522 35,000  Level Indianapolis Center
Wed 06:58:47 AM 39.6875 -86.3228 30° Northeast 453 521 35,000  Level Indianapolis Center
Wed 06:59:48 AM 39.8106 -86.2011 37° Northeast 460 529 35,000  Level Indianapolis Center
Wed 07:00:49 AM 39.9119 -86.1239 30° Northeast 456 525 35,000  Level Indianapolis Center
Wed 07:01:50 AM 40.0183 -86.0392 31° Northeast 452 520 35,000  Level Indianapolis Center
Wed 07:02:51 AM 40.1197 -85.9378 37° Northeast 460 529 35,000 -53 Level Indianapolis Center
Wed 07:03:43 AM 40.2044 -85.8689 32° Northeast 452 520 34,900 -584 Descending Chicago Center
Wed 07:04:44 AM 40.3319 -85.7678 31° Northeast 447 514 33,900 -942 Descending Chicago Center
Wed 07:05:44 AM 40.4364 -85.6739 34° Northeast 459 528 33,000 -843 Descending Chicago Center
Wed 07:06:45 AM 40.5506 -85.6267 17° North 435 501 32,200 -787 Descending Chicago Center
Wed 07:07:46 AM 40.6664 -85.5869 15° North 432 497 31,400 -1,082 Descending Chicago Center
Wed 07:08:47 AM 40.7472 -85.4853 44° Northeast 455 524 30,000 -1,574 Descending Chicago Center
Wed 07:09:48 AM 40.8331 -85.3614 47° Northeast 458 527 28,200 -1,339 Descending Chicago Center
Wed 07:10:48 AM 40.9631 -85.2669 29° Northeast 446 513 27,300 -1,041 Descending Chicago Center
Wed 07:11:49 AM 41.0700 -85.1858 30° Northeast 445 512 26,100 -1,475 Descending Chicago Center
Wed 07:12:50 AM 41.1786 -85.1258 23° Northeast 430 495 24,300 -1,623 Descending Chicago Center
Wed 07:13:51 AM 41.2839 -85.0714 21° North 414 476 22,800 -1,082 Descending Chicago Center
Wed 07:14:52 AM 41.3844 -85.0044 27° Northeast 409 471 22,100 -639 Descending Chicago Center
Wed 07:15:53 AM 41.4900 -84.9758 11° North 392 451 21,500 -541 Descending Chicago Center
Wed 07:16:54 AM 41.5956 -84.9597 North 386 444 21,000 -738 Descending Chicago Center
Wed 07:17:55 AM 41.6983 -84.9258 14° North 385 443 20,000 -934 Descending Chicago Center
Wed 07:18:56 AM 41.8022 -84.8864 16° North 389 448 19,100 -984 Descending Chicago Center
Wed 07:19:57 AM 41.9264 -84.8567 10° North 381 438 18,000 -1,024 Descending Chicago Center
Wed 07:20:59 AM 41.9686 -84.7267 66° East 407 468 17,000 -976 Descending Chicago Center
Wed 07:22:00 AM 41.9692 -84.5678 90° East 406 467 16,000 -1,131 Descending Chicago Center
Wed 07:23:01 AM 41.9675 -84.4192 91° East 402 463 14,700 -1,820 Descending Chicago Center
Wed 07:24:02 AM 41.9719 -84.2914 87° East 349 402 12,300 -2,385 Descending Chicago Center
Wed 07:24:19 AM 41.9681 -84.2503 97° East 361 415 11,600 -2,545 Descending Cleveland Center
Wed 07:24:35 AM 41.9714 -84.2142 83° East 341 392 10,900 -1,500 Descending Cleveland Center
Wed 07:25:19 AM 41.9678 -84.1272 93° East 345 397 10,100 -885 Descending Cleveland Center
Wed 07:25:36 AM 41.9686 -84.0967 88° East 321 369 10,000 -100 Descending Cleveland Center
Wed 07:26:19 AM 41.9878 -84.0194 72° East 300 345 10,000  Level Cleveland Center
Wed 07:26:37 AM 42.0114 -83.9956 37° Northeast 303 349 10,000 -600 Level Cleveland Center
Wed 07:27:19 AM 42.0425 -83.9331 56° Northeast 290 334 9,400 -1,180 Descending Cleveland Center
Wed 07:27:38 AM 42.0639 -83.9144 33° Northeast 283 326 8,800 -1,700 Descending Cleveland Center
Wed 07:28:19 AM 42.1081 -83.8972 16° North 245 282 7,700 -1,791 Descending Cleveland Center
Wed 07:28:45 AM 42.1433 -83.9019 354° North 253 291 6,800 -1,600 Descending Cleveland Center
Wed 07:29:19 AM 42.1811 -83.8897 13° North 239 275 6,100 -1,574 Descending Cleveland Center
Wed 07:29:46 AM 42.2111 -83.8689 27° Northeast 269 310 5,200 -1,468 Descending Cleveland Center
Wed 07:30:53 AM 42.2711 -83.8047 38° Northeast 258 297 3,800 -891 Descending Cleveland Center
Wed 07:31:54 AM 42.2694 -83.7147 91° East 212 244 3,300 -545 Descending Cleveland Center
Wed 07:32:54 AM 42.2778 -83.6422 81° East 183 211 2,700 -365 Descending Cleveland Center
Wed 07:33:49 AM 42.2875 -83.5836 77° East 168 193 2,600 -52 Descending Cleveland Center
Wed 07:34:50 AM 42.3078 -83.5258 65° Northeast 166 191 2,600  Level Cleveland Center

Login

Don't have an account? Register now (free) for customized features, flight alerts, and more!